createdAt,value
2022-09-05T00:01:28.332Z,86.79
2022-09-05T00:03:26.929Z,86.66
2022-09-05T00:04:58.412Z,86.39
2022-09-05T00:06:08.476Z,86.73
2022-09-05T00:07:35.983Z,87.05
2022-09-05T00:09:10.283Z,86.95
2022-09-05T00:10:23.565Z,87.13
2022-09-05T00:12:38.036Z,87.16
2022-09-05T00:13:54.804Z,86.83
2022-09-05T00:15:25.345Z,87.08
2022-09-05T00:16:58.395Z,86.72
2022-09-05T00:22:09.511Z,86.50
2022-09-05T00:24:30.500Z,86.33
2022-09-05T00:24:34.938Z,86.19
2022-09-05T00:25:57.959Z,86.00
2022-09-05T00:27:10.518Z,85.92
2022-09-05T00:28:27.193Z,85.83
2022-09-05T00:31:07.223Z,85.80
2022-09-05T00:31:55.439Z,86.07
2022-09-05T00:33:21.916Z,85.58
2022-09-05T00:34:47.787Z,85.56
2022-09-05T00:36:07.647Z,85.25
2022-09-05T00:37:14.376Z,85.24
2022-09-05T00:38:33.458Z,85.14
2022-09-05T00:39:48.571Z,85.16
2022-09-05T00:41:15.601Z,84.97
2022-09-05T00:42:20.170Z,85.46
2022-09-05T00:43:39.289Z,85.15
2022-09-05T00:44:51.516Z,85.09
2022-09-05T00:46:00.362Z,85.67
2022-09-05T00:47:13.363Z,85.72
2022-09-05T00:50:35.810Z,86.11
2022-09-05T00:51:43.433Z,85.60
2022-09-05T00:53:07.349Z,85.52
2022-09-05T00:54:40.928Z,85.63
2022-09-05T00:56:05.693Z,85.96
2022-09-05T00:57:58.159Z,86.01
2022-09-05T00:59:37.615Z,85.95
2022-09-05T01:00:51.334Z,85.49
2022-09-05T01:01:59.784Z,85.64
2022-09-05T01:04:01.247Z,85.82
2022-09-05T01:05:23.329Z,85.19
2022-09-05T01:07:30.906Z,85.86
2022-09-05T01:09:08.109Z,85.65
2022-09-05T01:10:23.560Z,85.96
2022-09-05T01:13:22.782Z,86.21
2022-09-05T01:15:32.947Z,85.80
2022-09-05T01:16:57.080Z,85.88
2022-09-05T01:18:20.725Z,86.01
2022-09-05T01:19:33.694Z,86.02
2022-09-05T01:20:50.762Z,86.90
2022-09-05T01:22:20.756Z,86.75
2022-09-05T01:23:59.160Z,87.02
2022-09-05T01:25:36.713Z,87.46
2022-09-05T01:27:21.063Z,87.53
2022-09-05T01:29:17.023Z,87.80
2022-09-05T01:31:38.219Z,87.80
2022-09-05T01:32:49.056Z,87.18
2022-09-05T01:34:12.683Z,87.49
2022-09-05T01:35:59.168Z,87.53
2022-09-05T01:37:46.415Z,87.10
2022-09-05T01:40:10.423Z,87.06
2022-09-05T01:43:17.298Z,87.52
2022-09-05T01:44:38.489Z,87.56
2022-09-05T01:46:30.693Z,87.64
2022-09-05T01:51:05.363Z,87.37
2022-09-05T01:54:44.324Z,89.07
2022-09-05T01:58:56.189Z,89.36
2022-09-05T02:01:30.081Z,89.86
2022-09-05T02:03:09.637Z,89.49
2022-09-05T02:04:54.508Z,88.77
2022-09-05T02:09:02.507Z,89.60
2022-09-05T02:10:43.227Z,89.76
2022-09-05T02:11:54.179Z,90.58
2022-09-05T02:13:21.698Z,90.20
2022-09-05T02:14:54.168Z,90.20
2022-09-05T02:16:33.924Z,90.61
2022-09-05T02:18:15.738Z,90.59
2022-09-05T02:19:24.268Z,91.05
2022-09-05T02:20:35.999Z,90.15
2022-09-05T02:21:57.140Z,90.24
2022-09-05T02:23:40.504Z,90.97
2022-09-05T02:24:37.796Z,90.19
2022-09-05T02:26:02.665Z,90.50
2022-09-05T02:27:40.245Z,90.54
2022-09-05T02:28:56.707Z,90.74
2022-09-05T02:30:12.938Z,90.87
2022-09-05T02:31:32.207Z,90.66
2022-09-05T02:32:58.547Z,90.85
2022-09-05T02:34:14.162Z,90.65
2022-09-05T02:35:54.672Z,91.33
2022-09-05T02:45:00.757Z,91.30
2022-09-05T02:45:15.040Z,91.13
2022-09-05T02:45:59.174Z,90.49
2022-09-05T02:47:23.433Z,90.98
2022-09-05T02:48:33.804Z,90.63
2022-09-05T02:52:32.657Z,90.56
2022-09-05T02:57:25.597Z,90.81
2022-09-05T02:57:35.417Z,90.88
2022-09-05T02:57:36.531Z,90.10
2022-09-05T02:57:40.793Z,90.71
2022-09-05T02:59:57.447Z,90.11
2022-09-05T03:01:05.248Z,90.44
2022-09-05T03:02:26.391Z,90.38
2022-09-05T03:03:42.310Z,90.18
2022-09-05T03:05:04.833Z,90.93
2022-09-05T03:09:08.059Z,90.15
2022-09-05T03:14:25.210Z,90.30
2022-09-05T03:15:48.328Z,90.24
2022-09-05T03:18:20.159Z,90.43
2022-09-05T03:20:01.199Z,89.84
2022-09-05T03:21:48.338Z,89.89
2022-09-05T03:23:33.328Z,89.62
2022-09-05T03:25:19.239Z,89.51
2022-09-05T03:27:09.428Z,89.59
2022-09-05T03:28:47.549Z,89.35
2022-09-05T03:30:05.887Z,89.57
2022-09-05T03:31:25.183Z,89.66
2022-09-05T03:33:12.531Z,89.50
2022-09-05T03:34:42.027Z,89.65
2022-09-05T03:36:26.768Z,90.00
2022-09-05T03:38:09.526Z,90.00
2022-09-05T03:39:51.030Z,90.39
2022-09-05T03:41:05.004Z,90.01
2022-09-05T03:42:31.069Z,90.09
2022-09-05T03:44:03.199Z,90.60
2022-09-05T03:45:42.647Z,90.22
2022-09-05T03:47:04.540Z,90.71
2022-09-05T03:48:32.585Z,90.96
2022-09-05T03:52:06.518Z,90.93
2022-09-05T03:57:04.208Z,90.99
2022-09-05T03:57:12.478Z,91.01
2022-09-05T03:57:27.108Z,91.25
2022-09-05T03:57:38.599Z,91.24
2022-09-05T03:58:57.831Z,91.60
2022-09-05T04:00:09.829Z,91.30
2022-09-05T04:02:40.441Z,90.90
2022-09-05T04:08:19.030Z,91.03
2022-09-05T04:08:19.632Z,91.07
2022-09-05T04:08:20.564Z,90.98
2022-09-05T04:08:24.962Z,91.67
2022-09-05T04:08:49.992Z,91.67
2022-09-05T04:09:57.302Z,91.55
2022-09-05T04:11:13.776Z,91.59
2022-09-05T04:12:19.219Z,91.58
2022-09-05T04:13:26.531Z,91.42
2022-09-05T04:14:33.481Z,91.34
2022-09-05T04:15:44.239Z,91.43
2022-09-05T04:16:51.530Z,91.53
2022-09-05T04:18:04.210Z,91.29
2022-09-05T04:19:11.532Z,91.48
2022-09-05T04:20:21.470Z,91.54
2022-09-05T04:21:29.382Z,91.98
2022-09-05T04:22:41.162Z,91.75
2022-09-05T04:24:01.745Z,91.80
2022-09-05T04:25:09.113Z,92.24
2022-09-05T04:26:26.780Z,92.25
2022-09-05T04:27:38.159Z,92.41
2022-09-05T04:28:54.246Z,92.62
2022-09-05T04:30:01.838Z,92.70
2022-09-05T04:31:22.969Z,92.48
2022-09-05T04:32:35.321Z,92.56
2022-09-05T04:33:43.797Z,92.79
2022-09-05T04:35:00.990Z,93.46
2022-09-05T04:36:18.210Z,93.03
2022-09-05T04:37:55.376Z,92.86
2022-09-05T04:39:09.673Z,93.16
2022-09-05T04:40:35.700Z,93.06
2022-09-05T04:41:43.990Z,93.07
2022-09-05T04:42:48.690Z,93.32
2022-09-05T04:43:55.569Z,92.83
2022-09-05T04:45:03.087Z,93.30
2022-09-05T04:46:18.756Z,93.25
2022-09-05T04:47:27.270Z,93.08
2022-09-05T04:48:35.741Z,92.86
2022-09-05T04:49:42.413Z,92.70
2022-09-05T04:51:00.818Z,92.88
2022-09-05T04:52:35.678Z,92.79
2022-09-05T04:54:21.218Z,92.69
2022-09-05T04:55:27.938Z,92.80
2022-09-05T04:56:34.939Z,92.98
2022-09-05T04:57:41.746Z,92.51
2022-09-05T04:59:44.781Z,93.29
2022-09-05T05:04:22.429Z,93.13
2022-09-05T05:06:11.539Z,93.46
2022-09-05T05:06:15.945Z,93.92
2022-09-05T05:06:15.947Z,93.29
2022-09-05T05:07:33.836Z,93.81
2022-09-05T05:08:46.790Z,94.56
2022-09-05T05:10:01.896Z,94.70
2022-09-05T05:17:54.475Z,94.90
2022-09-05T05:18:03.287Z,94.48
2022-09-05T05:18:12.193Z,95.20
2022-09-05T05:18:13.106Z,94.89
2022-09-05T05:18:13.923Z,95.40
2022-09-05T05:19:04.904Z,95.41
2022-09-05T05:20:41.632Z,95.49
2022-09-05T05:21:46.676Z,95.57
2022-09-05T05:22:55.259Z,95.70
2022-09-05T05:24:01.878Z,96.09
2022-09-05T05:25:10.438Z,97.33
2022-09-05T05:26:25.307Z,97.24
2022-09-05T05:27:32.887Z,98.72
2022-09-05T05:28:54.149Z,98.67
2022-09-05T05:30:01.379Z,98.90
2022-09-05T05:31:11.972Z,99.21
2022-09-05T05:32:19.427Z,99.45
2022-09-05T05:33:38.214Z,98.79
2022-09-05T05:34:45.235Z,99.15
2022-09-05T05:35:49.971Z,99.39
2022-09-05T05:37:00.278Z,99.61
2022-09-05T05:38:14.994Z,99.48
2022-09-05T05:39:24.174Z,98.97
2022-09-05T05:40:30.372Z,98.64
2022-09-05T05:41:43.316Z,97.67
2022-09-05T05:42:47.161Z,97.05
2022-09-05T05:43:51.966Z,95.96
2022-09-05T05:44:57.512Z,95.36
2022-09-05T05:46:02.425Z,93.69
2022-09-05T05:47:08.329Z,93.68
2022-09-05T05:48:29.458Z,92.83
2022-09-05T05:49:46.151Z,91.89
2022-09-05T05:50:54.639Z,90.96
2022-09-05T05:52:13.999Z,90.38
2022-09-05T05:53:42.692Z,90.00
2022-09-05T05:55:14.070Z,88.90
2022-09-05T05:56:41.327Z,88.13
2022-09-05T05:58:07.708Z,87.60
2022-09-05T05:59:56.306Z,86.37
2022-09-05T06:01:39.531Z,85.71
2022-09-05T06:03:26.532Z,84.65
2022-09-05T06:05:12.078Z,84.07
2022-09-05T06:06:39.314Z,83.78
2022-09-05T06:09:42.151Z,83.39
2022-09-05T06:14:49.504Z,81.37
2022-09-05T06:15:00.478Z,81.66
2022-09-05T06:15:04.848Z,82.21
2022-09-05T06:15:28.662Z,81.98
2022-09-05T06:17:04.533Z,79.41
2022-09-05T06:18:45.720Z,79.52
2022-09-05T06:21:22.443Z,79.99
2022-09-05T06:22:07.051Z,79.53
2022-09-05T06:24:00.870Z,78.55
2022-09-05T06:25:44.463Z,78.22
2022-09-05T06:27:21.548Z,77.25
2022-09-05T06:28:30.901Z,78.15
2022-09-05T06:29:47.330Z,77.30
2022-09-05T06:31:31.418Z,76.33
2022-09-05T06:32:38.367Z,75.38
2022-09-05T06:33:53.135Z,75.23
2022-09-05T06:35:27.053Z,73.29
2022-09-05T06:36:45.193Z,73.03
2022-09-05T06:38:03.964Z,73.30
2022-09-05T06:39:13.835Z,72.92
2022-09-05T06:40:21.268Z,72.27
2022-09-05T06:41:33.729Z,71.67
2022-09-05T06:42:52.564Z,70.95
2022-09-05T06:44:35.358Z,69.33
2022-09-05T06:45:49.796Z,71.11
2022-09-05T06:47:30.249Z,70.74
2022-09-05T06:48:46.438Z,70.38
2022-09-05T06:50:24.159Z,69.95
2022-09-05T06:52:21.596Z,68.82
2022-09-05T06:53:49.487Z,68.51
2022-09-05T06:55:37.539Z,67.95
2022-09-05T06:56:58.261Z,67.92
2022-09-05T06:58:36.409Z,67.21
2022-09-05T07:00:18.182Z,65.47
2022-09-05T07:01:59.739Z,68.01
2022-09-05T07:03:09.183Z,66.71
2022-09-05T07:05:24.863Z,66.81
2022-09-05T07:06:02.110Z,67.13
2022-09-05T07:07:13.882Z,67.10
2022-09-05T07:08:35.947Z,66.14
2022-09-05T07:09:53.569Z,66.03
2022-09-05T07:11:11.433Z,65.87
2022-09-05T07:12:30.174Z,65.60
2022-09-05T07:13:40.923Z,65.43
2022-09-05T07:15:08.896Z,63.77
2022-09-05T07:16:36.202Z,64.47
2022-09-05T07:18:09.442Z,64.27
2022-09-05T07:19:28.143Z,63.52
2022-09-05T07:21:02.289Z,64.03
2022-09-05T07:22:29.614Z,62.53
2022-09-05T07:24:08.667Z,63.31
2022-09-05T07:25:20.431Z,63.05
2022-09-05T07:26:53.431Z,62.61
2022-09-05T07:28:26.116Z,62.13
2022-09-05T07:29:22.686Z,61.60
2022-09-05T07:30:26.127Z,61.52
2022-09-05T07:31:37.527Z,61.08
2022-09-05T07:32:43.038Z,60.32
2022-09-05T07:33:48.467Z,60.14
2022-09-05T07:34:52.708Z,59.97
2022-09-05T07:35:59.563Z,58.44
2022-09-05T07:37:13.962Z,58.06
2022-09-05T07:38:23.334Z,57.66
2022-09-05T07:39:41.711Z,57.07
2022-09-05T07:40:52.371Z,57.40
2022-09-05T07:41:57.939Z,58.22
2022-09-05T07:43:09.569Z,57.33
2022-09-05T07:44:20.943Z,57.45
2022-09-05T07:45:28.692Z,57.51
2022-09-05T07:46:34.528Z,57.43
2022-09-05T07:47:41.347Z,57.34
2022-09-05T07:48:47.951Z,56.70
2022-09-05T07:51:00.649Z,56.95
2022-09-05T07:56:55.104Z,56.15
2022-09-05T07:56:56.297Z,55.75
2022-09-05T07:57:00.667Z,55.22
2022-09-05T07:57:08.068Z,55.07
2022-09-05T07:58:42.038Z,55.58
2022-09-05T07:59:50.988Z,54.99
2022-09-05T08:00:56.546Z,54.70
2022-09-05T08:02:00.437Z,54.20
2022-09-05T08:03:11.153Z,53.31
2022-09-05T08:04:24.697Z,53.55
2022-09-05T08:05:36.036Z,54.49
2022-09-05T08:07:25.618Z,54.27
2022-09-05T08:08:10.078Z,54.00
2022-09-05T08:10:05.605Z,54.05
2022-09-05T08:11:22.593Z,54.15
2022-09-05T08:12:15.341Z,54.27
2022-09-05T08:13:22.890Z,54.12
2022-09-05T08:14:50.910Z,53.58
2022-09-05T08:16:13.544Z,53.52
2022-09-05T08:17:21.045Z,53.47
2022-09-05T08:18:38.278Z,52.99
2022-09-05T08:20:08.952Z,52.05
2022-09-05T08:21:15.969Z,52.80
2022-09-05T08:22:22.195Z,52.64
2022-09-05T08:23:40.695Z,50.39
2022-09-05T08:24:48.172Z,52.43
2022-09-05T08:25:58.967Z,51.84
2022-09-05T08:27:05.816Z,51.79
2022-09-05T08:28:22.869Z,51.59
2022-09-05T08:29:32.568Z,51.85
2022-09-05T08:30:41.599Z,51.72
2022-09-05T08:31:48.079Z,52.32
2022-09-05T08:33:11.414Z,51.28
2022-09-05T08:34:24.796Z,51.18
2022-09-05T08:35:45.820Z,49.85
2022-09-05T08:36:49.733Z,49.45
2022-09-05T08:37:54.858Z,50.58
2022-09-05T08:39:01.597Z,50.82
2022-09-05T08:40:10.630Z,50.41
2022-09-05T08:41:23.715Z,50.78
2022-09-05T08:43:56.011Z,51.14
2022-09-05T08:46:45.726Z,51.01
2022-09-05T08:46:48.479Z,51.03
2022-09-05T08:47:22.697Z,50.51
2022-09-05T08:48:49.777Z,49.58
2022-09-05T08:50:08.897Z,49.44
2022-09-05T08:51:25.058Z,49.98
2022-09-05T08:52:34.609Z,49.31
2022-09-05T08:53:53.031Z,46.15
2022-09-05T08:55:07.107Z,48.20
2022-09-05T08:56:18.118Z,48.56
2022-09-05T08:57:52.938Z,46.27
2022-09-05T08:59:31.556Z,48.57
2022-09-05T09:00:27.521Z,48.85
2022-09-05T09:01:57.713Z,49.00
2022-09-05T09:03:16.619Z,49.78
2022-09-05T09:04:26.750Z,49.68
2022-09-05T09:06:18.369Z,48.53
2022-09-05T09:07:50.927Z,49.22
2022-09-05T09:09:10.088Z,48.08
2022-09-05T09:10:40.997Z,48.69
2022-09-05T09:11:51.986Z,48.90
2022-09-05T09:13:10.998Z,48.19
2022-09-05T09:14:39.958Z,48.65
2022-09-05T09:15:48.341Z,48.66
2022-09-05T09:17:00.896Z,48.16
2022-09-05T09:18:13.687Z,48.82
2022-09-05T09:19:29.141Z,48.74
2022-09-05T09:20:37.638Z,48.78
2022-09-05T09:21:55.329Z,49.12
2022-09-05T09:23:05.855Z,49.21
2022-09-05T09:24:21.732Z,49.23
2022-09-05T09:25:31.821Z,49.27
2022-09-05T09:26:43.925Z,48.93
2022-09-05T09:28:50.572Z,49.00
2022-09-05T09:29:40.310Z,49.69
2022-09-05T09:30:48.208Z,49.95
2022-09-05T09:32:01.559Z,50.21
2022-09-05T09:33:07.648Z,50.36
2022-09-05T09:34:36.877Z,49.95
2022-09-05T09:35:48.581Z,50.28
2022-09-05T09:37:04.700Z,50.24
2022-09-05T09:38:19.358Z,50.04
2022-09-05T09:39:39.263Z,49.80
2022-09-05T09:41:22.001Z,50.29
2022-09-05T09:42:34.177Z,50.41
2022-09-05T09:44:00.800Z,50.94
2022-09-05T09:45:29.047Z,51.37
2022-09-05T09:46:40.509Z,51.10
2022-09-05T09:47:59.619Z,51.17
2022-09-05T09:49:23.261Z,51.35
2022-09-05T09:50:45.038Z,51.31
2022-09-05T09:52:32.406Z,51.22
2022-09-05T09:53:45.170Z,51.35
2022-09-05T09:55:41.213Z,51.32
2022-09-05T09:57:22.037Z,51.72
2022-09-05T09:58:58.836Z,51.99
2022-09-05T10:00:08.143Z,51.91
2022-09-05T10:01:36.569Z,51.82
2022-09-05T10:04:52.930Z,51.55
2022-09-05T10:08:59.782Z,51.63
2022-09-05T10:10:44.274Z,51.91
2022-09-05T10:10:49.223Z,52.29
2022-09-05T10:10:54.449Z,52.20
2022-09-05T10:12:16.506Z,52.24
2022-09-05T10:13:25.720Z,52.34
2022-09-05T10:15:08.060Z,52.18
2022-09-05T10:16:53.746Z,52.61
2022-09-05T10:18:24.648Z,52.44
2022-09-05T10:20:08.849Z,52.64
2022-09-05T10:21:35.393Z,52.36
2022-09-05T10:22:55.318Z,52.96
2022-09-05T10:24:21.297Z,52.60
2022-09-05T10:25:33.730Z,52.43
2022-09-05T10:27:04.761Z,52.67
2022-09-05T10:28:13.996Z,52.58
2022-09-05T10:29:42.465Z,52.27
2022-09-05T10:32:24.566Z,52.57
2022-09-05T10:35:05.001Z,52.96
2022-09-05T10:35:05.773Z,52.84
2022-09-05T10:35:22.421Z,53.12
2022-09-05T10:36:29.233Z,53.24
2022-09-05T10:37:39.190Z,53.43
2022-09-05T10:38:46.186Z,53.67
2022-09-05T10:39:52.461Z,53.49
2022-09-05T10:41:21.043Z,53.34
2022-09-05T10:42:43.376Z,53.07
2022-09-05T10:44:02.810Z,52.87
2022-09-05T10:45:16.267Z,52.46
2022-09-05T10:46:49.685Z,52.03
2022-09-05T10:48:12.801Z,52.02
2022-09-05T10:49:18.190Z,52.16
2022-09-05T10:50:28.677Z,52.33
2022-09-05T10:51:37.839Z,52.44
2022-09-05T10:53:00.948Z,52.39
2022-09-05T10:54:24.975Z,52.29
2022-09-05T10:55:34.195Z,52.59
2022-09-05T10:56:42.096Z,52.51
2022-09-05T10:57:57.230Z,52.22
2022-09-05T11:01:31.008Z,52.69
2022-09-05T11:02:26.640Z,52.26
2022-09-05T11:02:33.652Z,52.31
2022-09-05T11:03:46.770Z,52.22
2022-09-05T11:04:52.893Z,51.89
2022-09-05T11:05:58.908Z,52.11
2022-09-05T11:07:16.176Z,51.83
2022-09-05T11:08:27.249Z,51.33
2022-09-05T11:09:43.074Z,50.17
2022-09-05T11:10:50.946Z,50.04
2022-09-05T11:12:04.404Z,49.00
2022-09-05T11:13:22.278Z,49.08
2022-09-05T11:14:36.576Z,48.52
2022-09-05T11:16:04.691Z,48.59
2022-09-05T11:17:15.886Z,48.45
2022-09-05T11:18:30.377Z,48.42
2022-09-05T11:20:02.508Z,48.83
2022-09-05T11:21:12.430Z,49.29
2022-09-05T11:22:24.038Z,49.22
2022-09-05T11:23:33.800Z,48.97
2022-09-05T11:24:40.127Z,48.64
2022-09-05T11:25:47.998Z,47.86
2022-09-05T11:27:11.501Z,46.60
2022-09-05T11:28:27.276Z,46.14
2022-09-05T11:29:36.858Z,46.26
2022-09-05T11:30:43.878Z,46.15
2022-09-05T11:32:42.117Z,46.30
2022-09-05T11:34:58.736Z,45.57
2022-09-05T11:40:06.269Z,44.44
2022-09-05T11:40:07.272Z,46.48
2022-09-05T11:40:07.454Z,45.30
2022-09-05T11:40:51.145Z,44.48
2022-09-05T11:42:24.974Z,46.40
2022-09-05T11:44:02.426Z,46.23
2022-09-05T11:45:36.997Z,47.18
2022-09-05T11:46:46.140Z,47.45
2022-09-05T11:48:38.515Z,47.30
2022-09-05T11:50:09.013Z,47.22
2022-09-05T11:51:42.699Z,47.46
2022-09-05T11:53:31.698Z,46.97
2022-09-05T11:54:59.677Z,47.23
2022-09-05T11:56:32.233Z,47.16
2022-09-05T11:58:43.188Z,47.82
2022-09-05T12:01:42.284Z,48.64
2022-09-05T12:03:56.924Z,47.50
2022-09-05T12:05:49.885Z,46.09
2022-09-05T12:07:15.592Z,44.90
2022-09-05T12:08:37.387Z,44.07
2022-09-05T12:09:57.238Z,43.32
2022-09-05T12:11:08.456Z,44.01
2022-09-05T12:12:39.417Z,43.07
2022-09-05T12:13:48.974Z,42.28
2022-09-05T12:15:17.628Z,39.43
2022-09-05T12:16:42.327Z,40.48
2022-09-05T12:17:58.608Z,40.95
2022-09-05T12:19:19.750Z,41.28
2022-09-05T12:20:27.726Z,40.68
2022-09-05T12:21:38.288Z,40.16
2022-09-05T12:22:48.437Z,40.36
2022-09-05T12:24:59.289Z,39.48
2022-09-05T12:27:39.239Z,39.92
2022-09-05T12:27:44.199Z,39.79
2022-09-05T12:29:33.966Z,39.68
2022-09-05T12:30:08.163Z,39.71
2022-09-05T12:32:50.276Z,40.11
2022-09-05T12:36:02.539Z,39.69
2022-09-05T12:36:09.889Z,39.73
2022-09-05T12:36:11.451Z,39.95
2022-09-05T12:40:53.899Z,39.34
2022-09-05T12:40:57.439Z,39.52
2022-09-05T12:40:57.928Z,48.61
2022-09-05T12:41:33.000Z,38.65
2022-09-05T12:42:11.464Z,38.05
2022-09-05T12:44:39.564Z,38.67
2022-09-05T12:44:45.977Z,38.71
2022-09-05T12:45:56.548Z,39.08
2022-09-05T12:47:18.857Z,38.20
2022-09-05T12:48:38.904Z,38.49
2022-09-05T12:49:49.882Z,38.66
2022-09-05T12:50:58.581Z,38.44
2022-09-05T12:52:04.484Z,38.37
2022-09-05T12:53:11.784Z,38.45
2022-09-05T12:54:32.921Z,38.06
2022-09-05T12:55:44.412Z,38.39
2022-09-05T13:01:42.024Z,38.67
2022-09-05T13:03:01.810Z,39.42
2022-09-05T13:03:03.140Z,39.38
2022-09-05T13:03:07.651Z,39.01
2022-09-05T13:03:09.852Z,39.09
2022-09-05T13:04:26.853Z,38.64
2022-09-05T13:05:47.708Z,37.66
2022-09-05T13:06:56.740Z,37.79
2022-09-05T13:08:01.304Z,37.53
2022-09-05T13:09:07.950Z,37.50
2022-09-05T13:13:02.555Z,37.23
2022-09-05T13:14:50.585Z,36.98
2022-09-05T13:14:54.123Z,37.72
2022-09-05T13:15:07.894Z,37.45
2022-09-05T13:16:23.753Z,38.08
2022-09-05T13:17:44.281Z,38.16
2022-09-05T13:18:49.156Z,38.42
2022-09-05T13:19:52.735Z,38.95
2022-09-05T13:21:07.951Z,38.90
2022-09-05T13:22:12.077Z,39.66
2022-09-05T13:23:21.345Z,40.15
2022-09-05T13:24:27.944Z,40.23
2022-09-05T13:25:33.523Z,40.79
2022-09-05T13:26:40.275Z,40.40
2022-09-05T13:27:56.834Z,40.06
2022-09-05T13:29:10.688Z,40.44
2022-09-05T13:34:33.988Z,40.10
2022-09-05T13:38:02.195Z,40.37
2022-09-05T13:38:04.150Z,40.14
2022-09-05T13:38:10.555Z,40.28
2022-09-05T13:38:11.508Z,40.55
2022-09-05T13:39:29.661Z,40.75
2022-09-05T13:40:39.674Z,41.14
2022-09-05T13:41:44.947Z,40.83
2022-09-05T13:42:59.615Z,41.21
2022-09-05T13:44:27.009Z,42.08
2022-09-05T13:45:32.288Z,42.49
2022-09-05T13:46:40.103Z,42.62
2022-09-05T13:48:17.313Z,42.70
2022-09-05T13:49:26.765Z,42.51
2022-09-05T13:50:32.143Z,42.40
2022-09-05T13:51:39.237Z,42.37
2022-09-05T13:52:45.115Z,42.36
2022-09-05T13:53:59.590Z,42.05
2022-09-05T13:55:18.023Z,41.77
2022-09-05T13:56:25.511Z,41.39
2022-09-05T13:57:34.289Z,41.72
2022-09-05T13:58:48.037Z,41.38
2022-09-05T14:00:38.477Z,40.84
2022-09-05T14:02:24.601Z,40.43
2022-09-05T14:03:50.696Z,39.86
2022-09-05T14:05:20.751Z,38.68
2022-09-05T14:06:47.280Z,38.76
2022-09-05T14:08:32.838Z,37.50
2022-09-05T14:09:55.527Z,37.41
2022-09-05T14:11:22.095Z,37.16
2022-09-05T14:12:33.565Z,37.57
2022-09-05T14:13:54.601Z,36.58
2022-09-05T14:15:10.458Z,36.85
2022-09-05T14:16:18.841Z,36.85
2022-09-05T14:17:53.970Z,35.83
2022-09-05T14:19:16.330Z,37.02
2022-09-05T14:20:49.497Z,36.62
2022-09-05T14:21:54.718Z,36.84
2022-09-05T14:23:05.601Z,36.60
2022-09-05T14:24:27.825Z,36.76
2022-09-05T14:25:38.885Z,36.14
2022-09-05T14:26:47.443Z,36.44
2022-09-05T14:27:51.208Z,36.70
2022-09-05T14:29:05.082Z,35.90
2022-09-05T14:31:55.207Z,36.29
2022-09-05T14:37:37.247Z,36.68
2022-09-05T14:37:43.460Z,36.50
2022-09-05T14:37:48.904Z,36.72
2022-09-05T14:37:54.703Z,36.81
2022-09-05T14:38:13.352Z,37.28
2022-09-05T14:39:39.903Z,36.93
2022-09-05T14:41:26.097Z,35.86
2022-09-05T14:42:46.708Z,36.83
2022-09-05T14:44:28.949Z,36.30
2022-09-05T14:46:02.574Z,35.71
2022-09-05T14:47:34.972Z,36.19
2022-09-05T14:49:15.510Z,36.85
2022-09-05T14:50:39.177Z,36.87
2022-09-05T14:51:46.905Z,37.20
2022-09-05T14:56:12.222Z,36.57
2022-09-05T15:02:46.451Z,36.68
2022-09-05T15:02:47.707Z,36.49
2022-09-05T15:02:49.441Z,36.46
2022-09-05T15:03:00.269Z,36.35
2022-09-05T15:03:25.861Z,36.34
2022-09-05T15:04:52.177Z,36.75
2022-09-05T15:05:56.081Z,36.40
2022-09-05T15:07:07.604Z,35.98
2022-09-05T15:11:06.431Z,36.11
2022-09-05T15:12:14.755Z,36.43
2022-09-05T15:12:18.700Z,36.28
2022-09-05T15:12:45.929Z,36.01
2022-09-05T15:13:58.540Z,35.68
2022-09-05T15:15:14.087Z,35.79
2022-09-05T15:16:19.067Z,36.05
2022-09-05T15:17:26.398Z,35.70
2022-09-05T15:18:32.528Z,35.67
2022-09-05T15:20:06.502Z,35.67
2022-09-05T15:21:33.809Z,35.49
2022-09-05T15:22:43.148Z,35.64
2022-09-05T15:23:58.017Z,34.99
2022-09-05T15:25:16.679Z,35.41
2022-09-05T15:26:25.738Z,35.54
2022-09-05T15:27:30.835Z,35.40
2022-09-05T15:28:38.217Z,35.15
2022-09-05T15:29:42.112Z,35.06
2022-09-05T15:30:57.388Z,35.13
2022-09-05T15:32:15.487Z,35.32
2022-09-05T15:33:25.589Z,36.10
2022-09-05T15:34:33.678Z,36.37
2022-09-05T15:35:42.489Z,36.40
2022-09-05T15:36:46.622Z,36.37
2022-09-05T15:37:50.888Z,36.17
2022-09-05T15:38:58.392Z,35.92
2022-09-05T15:40:23.014Z,36.25
2022-09-05T15:41:29.641Z,36.62
2022-09-05T15:42:34.240Z,36.47
2022-09-05T15:43:41.568Z,36.83
2022-09-05T15:45:08.518Z,36.90
2022-09-05T15:46:09.636Z,36.80
2022-09-05T15:47:18.613Z,37.36
2022-09-05T15:48:26.607Z,37.47
2022-09-05T15:49:43.458Z,37.45
2022-09-05T15:50:51.568Z,37.39
2022-09-05T15:51:58.217Z,37.49
2022-09-05T15:53:01.255Z,37.66
2022-09-05T15:54:05.595Z,37.66
2022-09-05T15:55:17.986Z,38.00
2022-09-05T15:56:21.398Z,37.94
2022-09-05T15:57:31.346Z,37.81
2022-09-05T15:58:53.065Z,37.96
2022-09-05T15:59:59.717Z,38.61
2022-09-05T16:01:13.478Z,38.09
2022-09-05T16:02:36.599Z,38.01
2022-09-05T16:06:57.918Z,38.50
2022-09-05T16:10:29.489Z,38.44
2022-09-05T16:10:35.759Z,38.72
2022-09-05T16:10:36.595Z,38.88
2022-09-05T16:10:40.244Z,39.17
2022-09-05T16:12:07.337Z,39.72
2022-09-05T16:12:56.459Z,40.06
2022-09-05T16:14:13.998Z,40.72
2022-09-05T16:19:38.971Z,41.01
2022-09-05T16:23:11.753Z,41.18
2022-09-05T16:23:20.087Z,41.55
2022-09-05T16:23:30.677Z,42.22
2022-09-05T16:23:30.678Z,42.44
2022-09-05T16:23:34.526Z,42.79
2022-09-05T16:24:09.680Z,43.15
2022-09-05T16:25:17.155Z,43.54
2022-09-05T16:26:25.691Z,43.79
2022-09-05T16:27:46.307Z,44.41
2022-09-05T16:28:51.843Z,44.27
2022-09-05T16:29:56.040Z,44.32
2022-09-05T16:31:02.222Z,44.46
2022-09-05T16:32:16.477Z,45.04
2022-09-05T16:33:23.386Z,45.22
2022-09-05T16:34:32.375Z,45.27
2022-09-05T16:35:39.694Z,45.71
2022-09-05T16:37:07.142Z,46.14
2022-09-05T16:38:24.267Z,46.30
2022-09-05T16:39:49.481Z,46.80
2022-09-05T16:40:56.277Z,46.93
2022-09-05T16:42:04.155Z,47.23
2022-09-05T16:43:12.571Z,47.33
2022-09-05T16:44:22.939Z,47.66
2022-09-05T16:45:34.290Z,48.04
2022-09-05T16:46:41.600Z,48.37
2022-09-05T16:47:52.792Z,48.82
2022-09-05T16:49:01.715Z,49.01
2022-09-05T16:50:17.135Z,49.45
2022-09-05T16:51:35.733Z,50.01
2022-09-05T16:52:57.228Z,50.30
2022-09-05T16:54:05.616Z,50.05
2022-09-05T16:55:20.913Z,50.57
2022-09-05T16:56:37.607Z,50.87
2022-09-05T16:57:59.154Z,51.52
2022-09-05T16:59:08.875Z,51.17
2022-09-05T17:00:12.778Z,51.44
2022-09-05T17:01:32.933Z,52.04
2022-09-05T17:02:42.916Z,51.87
2022-09-05T17:03:54.227Z,52.22
2022-09-05T17:05:13.967Z,52.58
2022-09-05T17:06:25.652Z,52.25
2022-09-05T17:07:39.884Z,52.59
2022-09-05T17:08:47.670Z,52.50
2022-09-05T17:09:50.987Z,52.69
2022-09-05T17:11:03.716Z,53.10
2022-09-05T17:12:10.006Z,53.06
2022-09-05T17:13:16.717Z,53.52
2022-09-05T17:14:22.488Z,53.58
2022-09-05T17:15:28.405Z,53.90
2022-09-05T17:16:36.443Z,54.18
2022-09-05T17:18:20.516Z,54.52
2022-09-05T17:19:24.320Z,54.08
2022-09-05T17:20:30.322Z,54.56
2022-09-05T17:22:55.386Z,54.82
2022-09-05T17:29:17.919Z,55.12
2022-09-05T17:29:20.283Z,55.07
2022-09-05T17:29:26.613Z,55.34
2022-09-05T17:29:32.751Z,55.20
2022-09-05T17:32:48.844Z,55.67
2022-09-05T17:33:52.124Z,56.38
2022-09-05T17:35:18.678Z,57.54
2022-09-05T17:36:37.838Z,57.04
2022-09-05T17:38:11.034Z,57.13
2022-09-05T17:39:44.238Z,57.48
2022-09-05T17:41:12.498Z,57.65
2022-09-05T17:42:32.221Z,58.28
2022-09-05T17:43:38.795Z,57.88
2022-09-05T17:44:53.197Z,58.45
2022-09-05T17:46:10.138Z,59.02
2022-09-05T17:47:35.274Z,58.90
2022-09-05T17:49:19.311Z,59.52
2022-09-05T17:50:51.602Z,60.44
2022-09-05T17:52:28.813Z,60.20
2022-09-05T17:54:15.612Z,60.57
2022-09-05T17:55:21.379Z,60.28
2022-09-05T17:56:38.118Z,61.08
2022-09-05T17:57:51.836Z,61.21
2022-09-05T17:59:04.607Z,61.54
2022-09-05T18:00:49.831Z,62.29
2022-09-05T18:02:47.168Z,63.21
2022-09-05T18:04:16.533Z,62.06
2022-09-05T18:05:59.531Z,62.57
2022-09-05T18:07:43.459Z,63.03
2022-09-05T18:08:55.528Z,62.72
2022-09-05T18:11:37.737Z,63.42
2022-09-05T18:14:50.288Z,63.81
2022-09-05T18:16:13.079Z,63.92
2022-09-05T18:17:59.362Z,65.34
2022-09-05T18:19:40.156Z,65.07
2022-09-05T18:21:21.428Z,64.68
2022-09-05T18:22:25.491Z,64.83
2022-09-05T18:25:30.587Z,65.24
2022-09-05T18:26:43.191Z,65.24
2022-09-05T18:29:37.192Z,66.25